Airways and Terminal Forecast

Significant Meteorological Information

WSPH31 RPLL 040440 
RPHI SIGMET A02 VALID 040445/040845 RPLL-
RPHI MANILA FIR EMBD TS OBS WI N0716 E11955 - N0548 E12117 - N0446 E11927 - N0730 E11730 - N0801 E11654 - N0849 E11731 - N0716 E11955 TOP FL520 MOV WSW 10KT NC=

Terminal Aerodrome Forecast

TAF RPLL

041100Z 0412/0518 08010KT 9999 FEW025 BKN100 TX31/0506Z TN22/0420Z TEMPO 0412/0418 11013KT SCT025 BKN100 TEMPO 0418/0424 02009KT SCT023 SCT100=

TAF RPVM

041100Z 0412/0518 02010KT 9999 FEW020 SCT300 TEMPO 0412/0418 01014KT FEW020 SCT100 TEMPO 0418/0424 03015KT=

TAF RPLC

041100Z 0412/0518 02008KT 9999 FEW020 BKN300 TX30/0506Z TN21/0422Z TEMPO 0412/0418 29008KT SCT020 BKN300=

TAF RPLB

041100Z 0412/0512 07009KT 9999 FEW020 SCT300 TX30/0506Z TN24/0421Z TEMPO 0412/0418 06013KT SCT020 BKN300=

TAF RPLI

041100Z 0412/0512 03011KT 9999 FEW018 SCT100 TEMPO 0412/0418 04011G21KT FEW018 BKN090=

TAF RPVP

041100Z 0412/0512 07013KT 9999 FEW019 BKN080 TEMPO 0412/0418 03009KT -RA SCT019 OVC080 TEMPO 0503/0509 07014G24KT -RA FEW019 SCT090=

TAF RPVD

041100Z 0412/0512 02009KT  9999 FEW015 SCT070 TEMPO 0412/0418 34007KT -RA FEW015 BKN070=

TAF RPMR

041100Z 0412/0512 32005KT 9999 FEW018 BKN080 TEMPO 0418/0424 FEW018 SCT080=

TAF RPMD

041100Z 0412/0512 36010KT 9999 FEW016 SCT090 BKN260 TEMPO 0412/0418 -RA FEW016 BKN260=

TAF RPMZ

041100Z 0412/0512 02007KT 9999 FEW017 SCT090 BKN300 TEMPO 0412/0418 33004KT -RA FEW017 BKN090 =

TAF RPVK

041100Z 0412/0512 03012KT 9999 FEW016 SCT070 BKN240 TEMPO 0412/0418 -RA SCT016 BKN070=

 

RPLL FORECAST TAKE-OFF CONDITION

TIME

(UTC)

WIND

(dddffKT)

TEMP

(°C)

QNH

(hPa)

TIME

(UTC)

WIND

(dddffKT)

TEMP

(°C)

QNH

(hPa)

1200

10008KT

26.0

1014.0

1600

12012KT

25.0

1014.0

1300

07005KT

26.0

1014.0

1700

11013KT

24.0

1013.0

1400

09008KT

25.0

1015.0

1800

13011KT

24.0

1012.0

1500

11009KT

25.0

1015.0

1900

10009KT

23.0

1012.0

 

ISSUED AT NAIA AMSS-WD/PAGASA-DOST FOR 1100UTC 04 DECEMBER 2021

PREPARED BY:    LLAB

CHECKED BY:      CHH